sensor_id;sensor_type;location;lat;lon;timestamp;P1;durP1;ratioP1;P2;durP2;ratioP2
11663;SDS011;72375;59.302;18.204;2023-11-21T00:00:08;2.67;;;1.80;;
11663;SDS011;72375;59.302;18.204;2023-11-21T00:02:56;2.30;;;1.90;;
11663;SDS011;72375;59.302;18.204;2023-11-21T00:05:42;2.93;;;1.90;;
11663;SDS011;72375;59.302;18.204;2023-11-21T00:08:29;2.60;;;2.17;;
11663;SDS011;72375;59.302;18.204;2023-11-21T00:11:14;2.60;;;2.03;;
11663;SDS011;72375;59.302;18.204;2023-11-21T00:14:00;2.70;;;1.90;;
11663;SDS011;72375;59.302;18.204;2023-11-21T00:16:46;2.70;;;1.83;;
11663;SDS011;72375;59.302;18.204;2023-11-21T00:19:32;2.60;;;1.80;;
11663;SDS011;72375;59.302;18.204;2023-11-21T00:22:18;2.03;;;1.83;;
11663;SDS011;72375;59.302;18.204;2023-11-21T00:28:46;2.57;;;2.03;;
11663;SDS011;72375;59.302;18.204;2023-11-21T00:31:31;1.73;;;1.50;;
11663;SDS011;72375;59.302;18.204;2023-11-21T00:34:17;2.73;;;1.60;;
11663;SDS011;72375;59.302;18.204;2023-11-21T00:37:03;2.60;;;1.87;;
11663;SDS011;72375;59.302;18.204;2023-11-21T00:39:48;2.00;;;1.70;;
11663;SDS011;72375;59.302;18.204;2023-11-21T00:42:34;2.70;;;1.80;;
11663;SDS011;72375;59.302;18.204;2023-11-21T00:45:21;2.07;;;1.50;;
11663;SDS011;72375;59.302;18.204;2023-11-21T00:48:06;2.20;;;1.80;;
11663;SDS011;72375;59.302;18.204;2023-11-21T00:50:53;3.10;;;1.70;;
11663;SDS011;72375;59.302;18.204;2023-11-21T00:53:39;2.20;;;1.77;;
11663;SDS011;72375;59.302;18.204;2023-11-21T00:56:25;1.57;;;1.30;;
11663;SDS011;72375;59.302;18.204;2023-11-21T00:59:11;1.73;;;1.53;;
11663;SDS011;72375;59.302;18.204;2023-11-21T01:01:58;2.53;;;1.53;;
11663;SDS011;72375;59.302;18.204;2023-11-21T01:04:45;2.70;;;1.90;;
11663;SDS011;72375;59.302;18.204;2023-11-21T01:07:31;2.27;;;1.97;;
11663;SDS011;72375;59.302;18.204;2023-11-21T01:10:17;2.70;;;1.60;;
11663;SDS011;72375;59.302;18.204;2023-11-21T01:13:03;1.97;;;1.60;;
11663;SDS011;72375;59.302;18.204;2023-11-21T01:15:49;1.73;;;1.60;;
11663;SDS011;72375;59.302;18.204;2023-11-21T01:18:36;1.63;;;1.40;;
11663;SDS011;72375;59.302;18.204;2023-11-21T01:21:22;1.87;;;1.60;;
11663;SDS011;72375;59.302;18.204;2023-11-21T01:24:08;2.30;;;1.67;;
11663;SDS011;72375;59.302;18.204;2023-11-21T01:26:54;2.63;;;1.30;;
11663;SDS011;72375;59.302;18.204;2023-11-21T01:29:39;1.40;;;1.30;;
11663;SDS011;72375;59.302;18.204;2023-11-21T01:32:25;2.00;;;1.67;;
11663;SDS011;72375;59.302;18.204;2023-11-21T01:35:13;2.93;;;1.53;;
11663;SDS011;72375;59.302;18.204;2023-11-21T01:37:59;1.40;;;1.30;;
11663;SDS011;72375;59.302;18.204;2023-11-21T01:40:44;2.67;;;1.63;;
11663;SDS011;72375;59.302;18.204;2023-11-21T01:43:30;1.67;;;1.40;;
11663;SDS011;72375;59.302;18.204;2023-11-21T01:46:16;1.60;;;1.30;;
11663;SDS011;72375;59.302;18.204;2023-11-21T01:49:01;2.03;;;1.57;;
11663;SDS011;72375;59.302;18.204;2023-11-21T01:51:49;1.80;;;1.40;;
11663;SDS011;72375;59.302;18.204;2023-11-21T01:54:35;1.53;;;1.33;;
11663;SDS011;72375;59.302;18.204;2023-11-21T01:57:22;1.40;;;1.13;;
11663;SDS011;72375;59.302;18.204;2023-11-21T02:00:08;1.40;;;1.20;;
11663;SDS011;72375;59.302;18.204;2023-11-21T02:03:00;2.00;;;1.50;;
11663;SDS011;72375;59.302;18.204;2023-11-21T02:05:46;1.97;;;1.40;;
11663;SDS011;72375;59.302;18.204;2023-11-21T02:08:33;1.37;;;1.17;;
11663;SDS011;72375;59.302;18.204;2023-11-21T02:11:18;1.53;;;1.30;;
11663;SDS011;72375;59.302;18.204;2023-11-21T02:14:04;1.70;;;1.40;;
11663;SDS011;72375;59.302;18.204;2023-11-21T02:16:51;1.30;;;1.10;;
11663;SDS011;72375;59.302;18.204;2023-11-21T02:19:37;1.73;;;1.50;;
11663;SDS011;72375;59.302;18.204;2023-11-21T02:22:23;1.83;;;1.50;;
11663;SDS011;72375;59.302;18.204;2023-11-21T02:25:13;1.97;;;1.40;;
11663;SDS011;72375;59.302;18.204;2023-11-21T02:27:59;2.07;;;1.40;;
11663;SDS011;72375;59.302;18.204;2023-11-21T02:30:45;1.90;;;1.50;;
11663;SDS011;72375;59.302;18.204;2023-11-21T02:33:38;2.83;;;1.70;;
11663;SDS011;72375;59.302;18.204;2023-11-21T02:36:24;2.17;;;1.50;;
11663;SDS011;72375;59.302;18.204;2023-11-21T02:39:10;3.10;;;1.40;;
11663;SDS011;72375;59.302;18.204;2023-11-21T02:41:58;1.90;;;1.50;;
11663;SDS011;72375;59.302;18.204;2023-11-21T02:44:43;1.53;;;1.30;;
11663;SDS011;72375;59.302;18.204;2023-11-21T02:47:29;1.60;;;1.40;;
11663;SDS011;72375;59.302;18.204;2023-11-21T02:50:15;1.47;;;1.33;;
11663;SDS011;72375;59.302;18.204;2023-11-21T02:53:02;1.57;;;1.43;;
11663;SDS011;72375;59.302;18.204;2023-11-21T02:55:49;1.50;;;1.40;;
11663;SDS011;72375;59.302;18.204;2023-11-21T02:58:36;1.67;;;1.57;;
11663;SDS011;72375;59.302;18.204;2023-11-21T03:01:22;1.47;;;1.37;;
11663;SDS011;72375;59.302;18.204;2023-11-21T03:04:08;1.70;;;1.50;;
11663;SDS011;72375;59.302;18.204;2023-11-21T03:06:54;1.90;;;1.30;;
11663;SDS011;72375;59.302;18.204;2023-11-21T03:09:40;1.57;;;1.40;;
11663;SDS011;72375;59.302;18.204;2023-11-21T03:12:26;1.40;;;1.17;;
11663;SDS011;72375;59.302;18.204;2023-11-21T03:15:13;1.77;;;1.43;;
11663;SDS011;72375;59.302;18.204;2023-11-21T03:17:58;1.80;;;1.40;;
11663;SDS011;72375;59.302;18.204;2023-11-21T03:20:44;1.53;;;1.43;;
11663;SDS011;72375;59.302;18.204;2023-11-21T03:23:31;1.80;;;1.47;;
11663;SDS011;72375;59.302;18.204;2023-11-21T03:26:16;1.57;;;1.33;;
11663;SDS011;72375;59.302;18.204;2023-11-21T03:29:02;1.80;;;1.50;;
11663;SDS011;72375;59.302;18.204;2023-11-21T03:31:49;2.27;;;1.30;;
11663;SDS011;72375;59.302;18.204;2023-11-21T03:34:35;2.03;;;1.53;;
11663;SDS011;72375;59.302;18.204;2023-11-21T03:37:37;1.80;;;1.50;;
11663;SDS011;72375;59.302;18.204;2023-11-21T03:40:25;1.67;;;1.27;;
11663;SDS011;72375;59.302;18.204;2023-11-21T03:43:10;2.07;;;1.30;;
11663;SDS011;72375;59.302;18.204;2023-11-21T03:45:56;1.90;;;1.50;;
11663;SDS011;72375;59.302;18.204;2023-11-21T03:48:43;2.20;;;1.50;;
11663;SDS011;72375;59.302;18.204;2023-11-21T03:51:28;1.97;;;1.40;;
11663;SDS011;72375;59.302;18.204;2023-11-21T03:54:14;1.57;;;1.47;;
11663;SDS011;72375;59.302;18.204;2023-11-21T03:57:00;2.30;;;1.50;;
11663;SDS011;72375;59.302;18.204;2023-11-21T03:59:45;1.33;;;1.20;;
11663;SDS011;72375;59.302;18.204;2023-11-21T04:02:31;1.93;;;1.53;;
11663;SDS011;72375;59.302;18.204;2023-11-21T04:05:19;2.90;;;1.60;;
11663;SDS011;72375;59.302;18.204;2023-11-21T04:08:06;2.37;;;1.50;;
11663;SDS011;72375;59.302;18.204;2023-11-21T04:10:52;1.47;;;1.30;;
11663;SDS011;72375;59.302;18.204;2023-11-21T04:13:39;1.90;;;1.53;;
11663;SDS011;72375;59.302;18.204;2023-11-21T04:16:26;2.37;;;1.43;;
11663;SDS011;72375;59.302;18.204;2023-11-21T04:19:11;1.67;;;1.30;;
11663;SDS011;72375;59.302;18.204;2023-11-21T04:22:00;2.00;;;1.40;;
11663;SDS011;72375;59.302;18.204;2023-11-21T04:24:45;1.60;;;1.40;;
11663;SDS011;72375;59.302;18.204;2023-11-21T04:27:31;2.53;;;2.00;;
11663;SDS011;72375;59.302;18.204;2023-11-21T04:30:16;1.50;;;1.40;;
11663;SDS011;72375;59.302;18.204;2023-11-21T04:33:02;1.60;;;1.40;;
11663;SDS011;72375;59.302;18.204;2023-11-21T04:35:48;1.97;;;1.60;;
11663;SDS011;72375;59.302;18.204;2023-11-21T04:38:35;1.67;;;1.40;;
11663;SDS011;72375;59.302;18.204;2023-11-21T04:41:21;2.20;;;1.80;;
11663;SDS011;72375;59.302;18.204;2023-11-21T04:44:06;2.63;;;1.77;;
11663;SDS011;72375;59.302;18.204;2023-11-21T04:46:52;1.70;;;1.60;;
11663;SDS011;72375;59.302;18.204;2023-11-21T04:49:42;1.73;;;1.47;;
11663;SDS011;72375;59.302;18.204;2023-11-21T04:52:28;2.00;;;1.70;;
11663;SDS011;72375;59.302;18.204;2023-11-21T04:55:15;2.13;;;1.60;;
11663;SDS011;72375;59.302;18.204;2023-11-21T04:58:01;1.63;;;1.30;;
11663;SDS011;72375;59.302;18.204;2023-11-21T05:00:47;2.33;;;2.03;;
11663;SDS011;72375;59.302;18.204;2023-11-21T05:03:33;2.00;;;1.80;;
11663;SDS011;72375;59.302;18.204;2023-11-21T05:06:19;2.27;;;1.63;;
11663;SDS011;72375;59.302;18.204;2023-11-21T05:09:04;2.37;;;1.70;;
11663;SDS011;72375;59.302;18.204;2023-11-21T05:11:57;2.07;;;1.70;;
11663;SDS011;72375;59.302;18.204;2023-11-21T05:14:43;1.40;;;1.27;;
11663;SDS011;72375;59.302;18.204;2023-11-21T05:17:30;1.60;;;1.50;;
11663;SDS011;72375;59.302;18.204;2023-11-21T05:20:16;2.17;;;1.77;;
11663;SDS011;72375;59.302;18.204;2023-11-21T05:23:04;1.30;;;1.20;;
11663;SDS011;72375;59.302;18.204;2023-11-21T05:25:50;1.30;;;1.13;;
11663;SDS011;72375;59.302;18.204;2023-11-21T05:28:37;2.40;;;1.30;;
11663;SDS011;72375;59.302;18.204;2023-11-21T05:31:22;1.70;;;1.10;;
11663;SDS011;72375;59.302;18.204;2023-11-21T05:34:08;1.37;;;1.23;;
11663;SDS011;72375;59.302;18.204;2023-11-21T05:36:53;1.50;;;1.20;;
11663;SDS011;72375;59.302;18.204;2023-11-21T05:39:41;1.20;;;1.07;;
11663;SDS011;72375;59.302;18.204;2023-11-21T05:42:27;1.93;;;1.40;;
11663;SDS011;72375;59.302;18.204;2023-11-21T05:45:16;1.87;;;1.10;;
11663;SDS011;72375;59.302;18.204;2023-11-21T05:48:02;1.87;;;1.10;;
11663;SDS011;72375;59.302;18.204;2023-11-21T05:50:48;1.63;;;1.10;;
11663;SDS011;72375;59.302;18.204;2023-11-21T05:53:34;1.23;;;1.13;;
11663;SDS011;72375;59.302;18.204;2023-11-21T05:56:20;1.07;;;0.90;;
11663;SDS011;72375;59.302;18.204;2023-11-21T05:59:05;1.17;;;1.00;;
11663;SDS011;72375;59.302;18.204;2023-11-21T06:01:52;1.50;;;1.10;;
11663;SDS011;72375;59.302;18.204;2023-11-21T06:04:38;1.00;;;0.90;;
11663;SDS011;72375;59.302;18.204;2023-11-21T06:07:24;1.30;;;1.00;;
11663;SDS011;72375;59.302;18.204;2023-11-21T06:10:10;1.30;;;0.97;;
11663;SDS011;72375;59.302;18.204;2023-11-21T06:12:58;1.20;;;0.93;;
11663;SDS011;72375;59.302;18.204;2023-11-21T06:15:43;1.30;;;0.93;;
11663;SDS011;72375;59.302;18.204;2023-11-21T06:18:30;1.33;;;1.00;;
11663;SDS011;72375;59.302;18.204;2023-11-21T06:21:16;1.10;;;0.80;;
11663;SDS011;72375;59.302;18.204;2023-11-21T06:24:02;1.30;;;1.10;;
11663;SDS011;72375;59.302;18.204;2023-11-21T06:26:48;1.00;;;0.80;;
11663;SDS011;72375;59.302;18.204;2023-11-21T06:29:34;1.50;;;1.27;;
11663;SDS011;72375;59.302;18.204;2023-11-21T06:32:21;2.07;;;1.10;;
11663;SDS011;72375;59.302;18.204;2023-11-21T06:35:08;1.37;;;0.93;;
11663;SDS011;72375;59.302;18.204;2023-11-21T06:37:54;1.27;;;1.00;;
11663;SDS011;72375;59.302;18.204;2023-11-21T06:40:39;1.20;;;1.00;;
11663;SDS011;72375;59.302;18.204;2023-11-21T06:43:25;1.30;;;0.80;;
11663;SDS011;72375;59.302;18.204;2023-11-21T06:46:11;1.00;;;0.90;;
11663;SDS011;72375;59.302;18.204;2023-11-21T06:48:58;0.90;;;0.70;;
11663;SDS011;72375;59.302;18.204;2023-11-21T06:51:45;1.27;;;1.00;;
11663;SDS011;72375;59.302;18.204;2023-11-21T06:54:31;1.10;;;1.00;;
11663;SDS011;72375;59.302;18.204;2023-11-21T06:57:17;1.30;;;0.80;;
11663;SDS011;72375;59.302;18.204;2023-11-21T07:00:03;1.50;;;0.80;;
11663;SDS011;72375;59.302;18.204;2023-11-21T07:02:52;1.73;;;1.00;;
11663;SDS011;72375;59.302;18.204;2023-11-21T07:05:38;1.40;;;1.03;;
11663;SDS011;72375;59.302;18.204;2023-11-21T07:08:25;0.93;;;0.70;;
11663;SDS011;72375;59.302;18.204;2023-11-21T07:11:11;0.97;;;0.87;;
11663;SDS011;72375;59.302;18.204;2023-11-21T07:13:56;1.00;;;0.90;;
11663;SDS011;72375;59.302;18.204;2023-11-21T07:16:42;1.30;;;0.80;;
11663;SDS011;72375;59.302;18.204;2023-11-21T07:19:28;1.30;;;1.20;;
11663;SDS011;72375;59.302;18.204;2023-11-21T07:22:14;1.27;;;1.00;;
11663;SDS011;72375;59.302;18.204;2023-11-21T07:25:06;1.93;;;1.10;;
11663;SDS011;72375;59.302;18.204;2023-11-21T07:27:53;1.30;;;0.97;;
11663;SDS011;72375;59.302;18.204;2023-11-21T07:30:38;1.30;;;1.10;;
11663;SDS011;72375;59.302;18.204;2023-11-21T07:33:24;1.40;;;1.10;;
11663;SDS011;72375;59.302;18.204;2023-11-21T07:36:10;1.30;;;0.97;;
11663;SDS011;72375;59.302;18.204;2023-11-21T07:38:56;1.63;;;1.00;;
11663;SDS011;72375;59.302;18.204;2023-11-21T07:41:43;1.27;;;0.97;;
11663;SDS011;72375;59.302;18.204;2023-11-21T07:44:32;1.40;;;1.10;;
11663;SDS011;72375;59.302;18.204;2023-11-21T07:47:17;1.23;;;0.90;;
11663;SDS011;72375;59.302;18.204;2023-11-21T07:50:03;1.67;;;1.00;;
11663;SDS011;72375;59.302;18.204;2023-11-21T07:52:50;1.07;;;0.90;;
11663;SDS011;72375;59.302;18.204;2023-11-21T07:55:38;1.20;;;1.10;;
11663;SDS011;72375;59.302;18.204;2023-11-21T07:58:25;1.30;;;1.03;;
11663;SDS011;72375;59.302;18.204;2023-11-21T08:01:10;1.03;;;0.87;;
11663;SDS011;72375;59.302;18.204;2023-11-21T08:03:56;1.90;;;1.20;;
11663;SDS011;72375;59.302;18.204;2023-11-21T08:06:45;1.50;;;0.97;;
11663;SDS011;72375;59.302;18.204;2023-11-21T08:09:31;1.07;;;0.90;;
11663;SDS011;72375;59.302;18.204;2023-11-21T08:12:18;1.70;;;1.13;;
11663;SDS011;72375;59.302;18.204;2023-11-21T08:15:06;2.83;;;0.93;;
11663;SDS011;72375;59.302;18.204;2023-11-21T08:17:52;1.97;;;1.30;;
11663;SDS011;72375;59.302;18.204;2023-11-21T08:20:38;1.57;;;0.90;;
11663;SDS011;72375;59.302;18.204;2023-11-21T08:23:24;0.97;;;0.87;;
11663;SDS011;72375;59.302;18.204;2023-11-21T08:26:09;1.23;;;1.07;;
11663;SDS011;72375;59.302;18.204;2023-11-21T08:28:55;1.70;;;1.00;;
11663;SDS011;72375;59.302;18.204;2023-11-21T08:31:42;1.50;;;1.07;;
11663;SDS011;72375;59.302;18.204;2023-11-21T08:34:30;1.53;;;0.93;;
11663;SDS011;72375;59.302;18.204;2023-11-21T08:37:16;1.30;;;0.97;;
11663;SDS011;72375;59.302;18.204;2023-11-21T08:40:01;1.30;;;1.03;;
11663;SDS011;72375;59.302;18.204;2023-11-21T08:42:48;0.93;;;0.83;;
11663;SDS011;72375;59.302;18.204;2023-11-21T08:45:35;1.00;;;0.80;;
11663;SDS011;72375;59.302;18.204;2023-11-21T08:48:22;1.47;;;0.80;;
11663;SDS011;72375;59.302;18.204;2023-11-21T08:51:09;1.30;;;0.90;;
11663;SDS011;72375;59.302;18.204;2023-11-21T08:53:56;1.10;;;1.00;;
11663;SDS011;72375;59.302;18.204;2023-11-21T08:56:44;1.43;;;1.10;;
11663;SDS011;72375;59.302;18.204;2023-11-21T08:59:30;1.20;;;1.07;;
11663;SDS011;72375;59.302;18.204;2023-11-21T09:02:16;1.57;;;1.10;;
11663;SDS011;72375;59.302;18.204;2023-11-21T09:05:03;1.87;;;1.00;;
11663;SDS011;72375;59.302;18.204;2023-11-21T09:07:49;1.57;;;1.17;;
11663;SDS011;72375;59.302;18.204;2023-11-21T09:10:35;1.33;;;0.97;;
11663;SDS011;72375;59.302;18.204;2023-11-21T09:13:21;1.10;;;0.70;;
11663;SDS011;72375;59.302;18.204;2023-11-21T09:16:08;1.43;;;1.00;;
11663;SDS011;72375;59.302;18.204;2023-11-21T09:18:54;1.53;;;0.80;;
11663;SDS011;72375;59.302;18.204;2023-11-21T09:21:41;1.57;;;0.97;;
11663;SDS011;72375;59.302;18.204;2023-11-21T09:24:27;1.00;;;0.80;;
11663;SDS011;72375;59.302;18.204;2023-11-21T09:27:14;1.23;;;0.90;;
11663;SDS011;72375;59.302;18.204;2023-11-21T09:30:01;1.60;;;1.10;;
11663;SDS011;72375;59.302;18.204;2023-11-21T09:32:48;0.93;;;0.90;;
11663;SDS011;72375;59.302;18.204;2023-11-21T09:35:34;0.83;;;0.70;;
11663;SDS011;72375;59.302;18.204;2023-11-21T09:38:21;1.37;;;1.00;;
11663;SDS011;72375;59.302;18.204;2023-11-21T09:41:08;1.13;;;1.03;;
11663;SDS011;72375;59.302;18.204;2023-11-21T09:44:01;1.57;;;0.90;;
11663;SDS011;72375;59.302;18.204;2023-11-21T09:46:50;1.00;;;0.87;;
11663;SDS011;72375;59.302;18.204;2023-11-21T09:49:39;1.40;;;0.90;;
11663;SDS011;72375;59.302;18.204;2023-11-21T09:52:25;0.80;;;0.80;;
11663;SDS011;72375;59.302;18.204;2023-11-21T09:55:12;1.50;;;0.90;;
11663;SDS011;72375;59.302;18.204;2023-11-21T09:57:59;1.57;;;0.80;;
11663;SDS011;72375;59.302;18.204;2023-11-21T10:00:46;1.10;;;0.90;;
11663;SDS011;72375;59.302;18.204;2023-11-21T10:03:34;2.07;;;1.10;;
11663;SDS011;72375;59.302;18.204;2023-11-21T10:06:22;1.57;;;1.10;;
11663;SDS011;72375;59.302;18.204;2023-11-21T10:09:09;1.20;;;1.10;;
11663;SDS011;72375;59.302;18.204;2023-11-21T10:11:56;1.77;;;1.00;;
11663;SDS011;72375;59.302;18.204;2023-11-21T10:14:44;1.20;;;0.80;;
11663;SDS011;72375;59.302;18.204;2023-11-21T10:17:33;1.63;;;1.27;;
11663;SDS011;72375;59.302;18.204;2023-11-21T10:20:26;1.17;;;1.03;;
11663;SDS011;72375;59.302;18.204;2023-11-21T10:23:13;1.13;;;0.97;;
11663;SDS011;72375;59.302;18.204;2023-11-21T10:26:00;1.03;;;0.90;;
11663;SDS011;72375;59.302;18.204;2023-11-21T10:28:56;1.20;;;1.00;;
11663;SDS011;72375;59.302;18.204;2023-11-21T10:31:42;1.30;;;1.20;;
11663;SDS011;72375;59.302;18.204;2023-11-21T10:34:28;0.87;;;0.83;;
11663;SDS011;72375;59.302;18.204;2023-11-21T10:37:14;1.00;;;0.90;;
11663;SDS011;72375;59.302;18.204;2023-11-21T10:40:00;1.20;;;1.10;;
11663;SDS011;72375;59.302;18.204;2023-11-21T10:42:46;1.30;;;1.03;;
11663;SDS011;72375;59.302;18.204;2023-11-21T10:45:33;1.87;;;1.20;;
11663;SDS011;72375;59.302;18.204;2023-11-21T10:48:19;1.30;;;1.03;;
11663;SDS011;72375;59.302;18.204;2023-11-21T10:51:06;1.30;;;1.20;;
11663;SDS011;72375;59.302;18.204;2023-11-21T10:53:53;1.30;;;1.00;;
11663;SDS011;72375;59.302;18.204;2023-11-21T10:56:40;1.80;;;1.47;;
11663;SDS011;72375;59.302;18.204;2023-11-21T10:59:28;1.37;;;1.00;;
11663;SDS011;72375;59.302;18.204;2023-11-21T11:02:21;1.10;;;1.00;;
11663;SDS011;72375;59.302;18.204;2023-11-21T11:05:11;1.17;;;1.00;;
11663;SDS011;72375;59.302;18.204;2023-11-21T11:07:58;1.03;;;0.87;;
11663;SDS011;72375;59.302;18.204;2023-11-21T11:10:50;1.80;;;1.10;;
11663;SDS011;72375;59.302;18.204;2023-11-21T11:13:37;1.00;;;0.90;;
11663;SDS011;72375;59.302;18.204;2023-11-21T11:16:23;1.70;;;1.17;;
11663;SDS011;72375;59.302;18.204;2023-11-21T11:19:11;1.47;;;1.23;;
11663;SDS011;72375;59.302;18.204;2023-11-21T11:22:01;2.27;;;1.27;;
11663;SDS011;72375;59.302;18.204;2023-11-21T11:25:09;0.93;;;0.83;;
11663;SDS011;72375;59.302;18.204;2023-11-21T11:28:10;1.50;;;1.10;;
11663;SDS011;72375;59.302;18.204;2023-11-21T11:31:00;1.40;;;1.10;;
11663;SDS011;72375;59.302;18.204;2023-11-21T11:33:53;1.67;;;1.00;;
11663;SDS011;72375;59.302;18.204;2023-11-21T11:36:44;1.20;;;1.00;;
11663;SDS011;72375;59.302;18.204;2023-11-21T11:39:35;1.47;;;1.10;;
11663;SDS011;72375;59.302;18.204;2023-11-21T11:42:22;1.10;;;1.00;;
11663;SDS011;72375;59.302;18.204;2023-11-21T11:45:18;1.30;;;1.20;;
11663;SDS011;72375;59.302;18.204;2023-11-21T11:48:05;1.77;;;1.20;;
11663;SDS011;72375;59.302;18.204;2023-11-21T11:51:00;1.20;;;1.10;;
11663;SDS011;72375;59.302;18.204;2023-11-21T11:53:49;1.80;;;1.30;;
11663;SDS011;72375;59.302;18.204;2023-11-21T11:56:37;1.27;;;1.03;;
11663;SDS011;72375;59.302;18.204;2023-11-21T11:59:23;1.03;;;0.93;;
11663;SDS011;72375;59.302;18.204;2023-11-21T12:02:09;1.33;;;0.90;;
11663;SDS011;72375;59.302;18.204;2023-11-21T12:04:56;1.33;;;0.90;;
11663;SDS011;72375;59.302;18.204;2023-11-21T12:07:42;1.60;;;1.10;;
11663;SDS011;72375;59.302;18.204;2023-11-21T12:10:31;1.23;;;0.93;;
11663;SDS011;72375;59.302;18.204;2023-11-21T12:13:17;2.80;;;1.00;;
11663;SDS011;72375;59.302;18.204;2023-11-21T12:16:03;2.17;;;1.00;;
11663;SDS011;72375;59.302;18.204;2023-11-21T12:18:50;2.10;;;1.20;;
11663;SDS011;72375;59.302;18.204;2023-11-21T12:21:37;1.13;;;0.93;;
11663;SDS011;72375;59.302;18.204;2023-11-21T12:24:24;2.13;;;1.00;;
11663;SDS011;72375;59.302;18.204;2023-11-21T12:27:13;1.17;;;0.73;;
11663;SDS011;72375;59.302;18.204;2023-11-21T12:29:59;1.13;;;0.90;;
11663;SDS011;72375;59.302;18.204;2023-11-21T12:32:47;1.20;;;1.03;;
11663;SDS011;72375;59.302;18.204;2023-11-21T12:35:35;1.37;;;0.90;;
11663;SDS011;72375;59.302;18.204;2023-11-21T12:38:20;1.30;;;0.90;;
11663;SDS011;72375;59.302;18.204;2023-11-21T12:41:09;0.97;;;0.80;;
11663;SDS011;72375;59.302;18.204;2023-11-21T12:43:56;1.27;;;0.90;;
11663;SDS011;72375;59.302;18.204;2023-11-21T12:46:42;1.33;;;1.10;;
11663;SDS011;72375;59.302;18.204;2023-11-21T12:49:30;1.17;;;0.73;;
11663;SDS011;72375;59.302;18.204;2023-11-21T12:52:17;1.30;;;1.00;;
11663;SDS011;72375;59.302;18.204;2023-11-21T12:55:04;1.30;;;1.00;;
11663;SDS011;72375;59.302;18.204;2023-11-21T12:57:52;1.67;;;0.93;;
11663;SDS011;72375;59.302;18.204;2023-11-21T13:00:42;1.10;;;0.97;;
11663;SDS011;72375;59.302;18.204;2023-11-21T13:03:29;1.47;;;0.93;;
11663;SDS011;72375;59.302;18.204;2023-11-21T13:06:17;1.27;;;1.10;;
11663;SDS011;72375;59.302;18.204;2023-11-21T13:09:05;1.07;;;0.97;;
11663;SDS011;72375;59.302;18.204;2023-11-21T13:11:59;1.70;;;1.20;;
11663;SDS011;72375;59.302;18.204;2023-11-21T13:14:47;0.90;;;0.80;;
11663;SDS011;72375;59.302;18.204;2023-11-21T13:17:34;1.10;;;1.00;;
11663;SDS011;72375;59.302;18.204;2023-11-21T13:20:20;2.33;;;1.20;;
11663;SDS011;72375;59.302;18.204;2023-11-21T13:23:07;2.33;;;1.10;;
11663;SDS011;72375;59.302;18.204;2023-11-21T13:25:55;2.03;;;1.10;;
11663;SDS011;72375;59.302;18.204;2023-11-21T13:28:41;1.83;;;1.10;;
11663;SDS011;72375;59.302;18.204;2023-11-21T13:31:29;1.20;;;0.97;;
11663;SDS011;72375;59.302;18.204;2023-11-21T13:34:17;1.87;;;1.07;;
11663;SDS011;72375;59.302;18.204;2023-11-21T13:37:06;1.03;;;0.70;;
11663;SDS011;72375;59.302;18.204;2023-11-21T13:39:51;1.30;;;0.90;;
11663;SDS011;72375;59.302;18.204;2023-11-21T13:42:38;1.33;;;0.97;;
11663;SDS011;72375;59.302;18.204;2023-11-21T13:45:24;1.50;;;1.10;;
11663;SDS011;72375;59.302;18.204;2023-11-21T13:48:12;1.00;;;0.87;;
11663;SDS011;72375;59.302;18.204;2023-11-21T13:51:00;1.47;;;1.00;;
11663;SDS011;72375;59.302;18.204;2023-11-21T13:53:59;2.00;;;0.83;;
11663;SDS011;72375;59.302;18.204;2023-11-21T13:56:46;1.00;;;0.90;;
11663;SDS011;72375;59.302;18.204;2023-11-21T13:59:34;1.07;;;0.93;;
11663;SDS011;72375;59.302;18.204;2023-11-21T14:02:20;1.07;;;0.97;;
11663;SDS011;72375;59.302;18.204;2023-11-21T14:05:16;1.00;;;0.87;;
11663;SDS011;72375;59.302;18.204;2023-11-21T14:08:14;1.40;;;0.90;;
11663;SDS011;72375;59.302;18.204;2023-11-21T14:11:04;1.10;;;0.97;;
11663;SDS011;72375;59.302;18.204;2023-11-21T14:13:50;1.27;;;1.00;;
11663;SDS011;72375;59.302;18.204;2023-11-21T14:16:36;2.10;;;1.20;;
11663;SDS011;72375;59.302;18.204;2023-11-21T14:19:21;1.43;;;1.00;;
11663;SDS011;72375;59.302;18.204;2023-11-21T14:22:10;2.23;;;0.80;;
11663;SDS011;72375;59.302;18.204;2023-11-21T14:24:58;1.50;;;1.30;;
11663;SDS011;72375;59.302;18.204;2023-11-21T14:27:47;1.60;;;1.10;;
11663;SDS011;72375;59.302;18.204;2023-11-21T14:30:34;1.70;;;1.10;;
11663;SDS011;72375;59.302;18.204;2023-11-21T14:33:20;1.20;;;1.00;;
11663;SDS011;72375;59.302;18.204;2023-11-21T14:36:07;1.67;;;1.13;;
11663;SDS011;72375;59.302;18.204;2023-11-21T14:38:54;1.40;;;1.30;;
11663;SDS011;72375;59.302;18.204;2023-11-21T14:41:41;1.30;;;1.10;;
11663;SDS011;72375;59.302;18.204;2023-11-21T14:44:28;1.70;;;1.23;;
11663;SDS011;72375;59.302;18.204;2023-11-21T14:47:19;1.87;;;1.00;;
11663;SDS011;72375;59.302;18.204;2023-11-21T14:50:09;1.70;;;1.37;;
11663;SDS011;72375;59.302;18.204;2023-11-21T14:53:20;1.30;;;1.00;;
11663;SDS011;72375;59.302;18.204;2023-11-21T14:56:25;1.20;;;1.10;;
11663;SDS011;72375;59.302;18.204;2023-11-21T14:59:16;1.40;;;1.17;;
11663;SDS011;72375;59.302;18.204;2023-11-21T15:02:01;2.00;;;1.50;;
11663;SDS011;72375;59.302;18.204;2023-11-21T15:04:58;1.70;;;1.30;;
11663;SDS011;72375;59.302;18.204;2023-11-21T15:07:46;1.70;;;1.17;;
11663;SDS011;72375;59.302;18.204;2023-11-21T15:10:32;2.97;;;1.20;;
11663;SDS011;72375;59.302;18.204;2023-11-21T15:13:29;1.77;;;1.37;;
11663;SDS011;72375;59.302;18.204;2023-11-21T15:16:16;1.97;;;1.40;;
11663;SDS011;72375;59.302;18.204;2023-11-21T15:19:02;1.93;;;1.00;;
11663;SDS011;72375;59.302;18.204;2023-11-21T15:21:49;1.47;;;1.30;;
11663;SDS011;72375;59.302;18.204;2023-11-21T15:24:34;1.60;;;1.50;;
11663;SDS011;72375;59.302;18.204;2023-11-21T15:27:20;2.30;;;1.30;;
11663;SDS011;72375;59.302;18.204;2023-11-21T15:30:07;2.57;;;1.53;;
11663;SDS011;72375;59.302;18.204;2023-11-21T15:32:54;2.20;;;1.60;;
11663;SDS011;72375;59.302;18.204;2023-11-21T15:35:40;3.13;;;1.43;;
11663;SDS011;72375;59.302;18.204;2023-11-21T15:38:26;2.20;;;1.67;;
11663;SDS011;72375;59.302;18.204;2023-11-21T15:41:12;2.10;;;1.40;;
11663;SDS011;72375;59.302;18.204;2023-11-21T15:43:57;1.77;;;1.30;;
11663;SDS011;72375;59.302;18.204;2023-11-21T15:46:43;2.00;;;1.50;;
11663;SDS011;72375;59.302;18.204;2023-11-21T15:49:30;1.73;;;1.60;;
11663;SDS011;72375;59.302;18.204;2023-11-21T15:52:19;2.60;;;2.00;;
11663;SDS011;72375;59.302;18.204;2023-11-21T15:55:05;2.20;;;1.57;;
11663;SDS011;72375;59.302;18.204;2023-11-21T15:57:52;2.17;;;1.50;;
11663;SDS011;72375;59.302;18.204;2023-11-21T16:00:38;2.00;;;1.40;;
11663;SDS011;72375;59.302;18.204;2023-11-21T16:03:24;1.90;;;1.47;;
11663;SDS011;72375;59.302;18.204;2023-11-21T16:06:12;2.00;;;1.40;;
11663;SDS011;72375;59.302;18.204;2023-11-21T16:08:59;3.03;;;1.40;;
11663;SDS011;72375;59.302;18.204;2023-11-21T16:11:45;2.93;;;1.53;;
11663;SDS011;72375;59.302;18.204;2023-11-21T16:14:31;2.00;;;1.37;;
11663;SDS011;72375;59.302;18.204;2023-11-21T16:17:25;1.53;;;1.27;;
11663;SDS011;72375;59.302;18.204;2023-11-21T16:20:11;1.53;;;1.20;;
11663;SDS011;72375;59.302;18.204;2023-11-21T16:22:59;1.70;;;1.20;;
11663;SDS011;72375;59.302;18.204;2023-11-21T16:25:44;2.40;;;1.47;;
11663;SDS011;72375;59.302;18.204;2023-11-21T16:28:38;1.60;;;1.33;;
11663;SDS011;72375;59.302;18.204;2023-11-21T16:31:25;2.43;;;1.47;;
11663;SDS011;72375;59.302;18.204;2023-11-21T16:34:11;3.07;;;1.50;;